Rock Springs, Wyoming
Current Conditions -  °F | °C
As of 5:54 AM on Friday 28 Nov 2014 (Local Time) from KRKS Reporting Station
Clear Clear  
Wind Chill: 27°   Ceiling: Unl
Heat Index: 34°   Visibility: 10mi
Dew Point: 16°   Wind: 9mph
Humidity: 48%   Direction: 270°W
Pressure: 30.07"   Gusts: NA
Location:  41.59°N, 109.22°W
Report Text: KRKS 281254Z AUTO 27008KT 10SM CLR 01/M09 A3007 RMK AO2 SLP171 T00111089
Loading
Personal Weather Stations






























Interactive Weather Map New forecast layout! Learn more

10-Day Weather Forecast

Advertisements
Track Severe Weather on mobile